Ecuador Ama la vida
Dirección General de Aviación Civil
IFIS
Sábado 21 de Julio del 2018
Buscar por aerodromo o helipuerto
Ingrese nombre de aeródromo, localidad o designador OACI:
TAF: SEQM 210430Z 2106/2206 VRB03KT 9999 FEW030 BECMG 2113/2114 SCT040 BECMG 2117/2118 01014KT FM220000 03004KT 9999 FEW030 TX24/2119Z TN07/2111Z
TAF del 21/07/2018 a las 04:30 UTC
Período de validez: desde el 21 a las 06:00 UTC hasta el 22 a las 06:00 UTC
Viento: dirección variable, velocidad 3 nudos
Visibilidad reinante: 10 km o más
Nubes: Escasas a 3000 pies sobre el nivel del terreno
Se espera un cambio entre las 13:00 UTC del 21 y las 14:00 UTC del 21, :
Nubes: Dispersas a 4000 pies sobre el nivel del terreno
Se espera un cambio entre las 17:00 UTC del 21 y las 18:00 UTC del 21, :
Viento: dirección 010 grados, velocidad 14 nudos
Desde el 22 a las 00:00 UTC
Viento: dirección 030 grados, velocidad 4 nudos
Visibilidad reinante: 10 km o más
Nubes: Escasas a 3000 pies sobre el nivel del terreno
Temperatura máxima: 24ºC el 21 a las 19:00 UTC
Temperatura mínima: 7ºC el 21 a las 11:00 UTC